Hon Henry Jackman — C6VQ9 — position and weather

sailwx.info

Track history (hours):
 
Tides and Currents Weather Stations Pressure Air Temp Water Temp Dewpoint Dewpoint Depression Visibility Wind Speed Wind Dir Waves Ship Positions

Hon Henry Jackman

Last reported at 2018-Aug-13 03:37 UTC. Time now 2018-Aug-14 07:04 UTC.
Position N 50°48' W 128°29'.

Length 245 m; draft 13.5 m.

Type: Cargo ship. MMSI: 309822000.

Date/timePositionNaut miles runAvg speedWind from/ knotsBaromVisibWave heightAir tempDewpointWater temp
2018-Aug-13 03:37N 50°48' W 128°29'110.6
2018-Aug-13 03:29N 50°49' W 128°28'511.2
2018-Aug-13 03:00N 50°52' W 128°21'611.8
2018-Aug-13 02:30N 50°55' W 128°13'712.1
2018-Aug-13 01:56N 50°60' W 128°05'512.0
2018-Aug-13 01:30N 51°00' W 127°56'611.6
2018-Aug-13 01:00N 50°59' W 127°47'510.5
2018-Aug-13 00:30N 50°56' W 127°41'611.7
2018-Aug-13 00:00N 50°52' W 127°34'612.0
2018-Aug-12 23:30N 50°49' W 127°26'612.1
2018-Aug-12 23:00N 50°44' W 127°20'11 0.4
2018-Aug-11 21:31N 50°37' W 127°08'0 2.8
2018-Aug-11 21:23N 50°37' W 127°08'5 8.2
2018-Aug-11 20:48N 50°40' W 127°14'412.8
2018-Aug-11 20:28N 50°43' W 127°19'613.4
2018-Aug-11 20:00N 50°48' W 127°25'713.9
2018-Aug-11 19:30N 50°52' W 127°34'713.4
2018-Aug-11 19:00N 50°56' W 127°42'610.1
2018-Aug-11 18:25N 50°59' W 127°50'3 8.2
2018-Aug-11 18:00N 51°00' W 127°55'611.1
2018-Aug-11 17:25N 50°59' W 128°05'1311.7
2018-Aug-11 16:15N 50°53' W 128°24'4011.3
2018-Aug-11 12:41N 50°13' W 128°26'26212.7
2018-Aug-10 16:06N 45°57' W 127°02'213.0
2018-Aug-10 15:56N 45°55' W 127°02'2013.1
2018-Aug-10 14:24N 45°35' W 126°55'2013.3
2018-Aug-10 12:55N 45°16' W 126°50'1413.8
2018-Aug-10 11:53N 45°02' W 126°45'2013.5
2018-Aug-10 10:24N 44°42' W 126°39'512.9
2018-Aug-10 10:00N 44°37' W 126°38'6612.9
2018-Aug-10 04:53N 43°33' W 126°18'512.7
2018-Aug-10 04:30N 43°28' W 126°17'812.7
2018-Aug-10 03:53N 43°20' W 126°14'512.8
2018-Aug-10 03:31N 43°15' W 126°13'1312.6
2018-Aug-10 02:29N 43°03' W 126°09'613.0
2018-Aug-10 02:00N 42°57' W 126°07'912.7
2018-Aug-10 01:19N 42°48' W 126°05'515.3
2018-Aug-10 01:01N 42°44' W 126°03'610.7
2018-Aug-10 00:28N 42°38' W 126°02'23112.5
2018-Aug-09 05:57N 39°01' W 124°17'1712.2
2018-Aug-09 04:36N 38°47' W 124°06'112.0
2018-Aug-09 04:29N 38°45' W 124°05'712.2
2018-Aug-09 03:56N 38°40' W 123°59'512.6
2018-Aug-09 03:30N 38°37' W 123°54'612.5
2018-Aug-09 03:00N 38°32' W 123°49'612.4
2018-Aug-09 02:30N 38°28' W 123°43'612.2
2018-Aug-09 02:00N 38°23' W 123°38'612.2
2018-Aug-09 01:30N 38°19' W 123°32'612.5
2018-Aug-09 01:01N 38°15' W 123°27'612.3
2018-Aug-09 00:30N 38°10' W 123°21'5 9.7
2018-Aug-09 00:00N 38°06' W 123°17'4 8.7
2018-Aug-08 23:30N 38°03' W 123°14'4 8.8
2018-Aug-08 23:01N 37°60' W 123°10'4 8.8
2018-Aug-08 22:30N 37°57' W 123°06'4 8.7
2018-Aug-08 22:00N 37°55' W 123°01'5 9.1
2018-Aug-08 21:31N 37°53' W 122°56'4 9.0
2018-Aug-08 21:01N 37°51' W 122°51'4 9.0
2018-Aug-08 20:31N 37°48' W 122°46'5 9.3
2018-Aug-08 20:00N 37°46' W 122°41'5 9.6
2018-Aug-08 19:31N 37°47' W 122°35'713.1
2018-Aug-08 19:01N 37°49' W 122°28'510.6
2018-Aug-08 18:31N 37°46' W 122°22'612.4
2018-Aug-08 18:01N 37°41' W 122°20'611.1
2018-Aug-08 17:30N 37°36' W 122°16'5 9.9
2018-Aug-08 17:00N 37°32' W 122°12'2 0.1
2018-Aug-07 17:21N 37°31' W 122°12'1 2.0
2018-Aug-07 17:00N 37°32' W 122°12'3 6.1
2018-Aug-07 16:30N 37°34' W 122°14'510.5
2018-Aug-07 16:00N 37°38' W 122°18'510.0
2018-Aug-07 15:30N 37°42' W 122°21'2 3.5
2018-Aug-07 14:59N 37°44' W 122°20'0 0.1
2018-Aug-07 14:29N 37°44' W 122°20'0 0.0
2018-Aug-07 13:59N 37°44' W 122°20'0 0.0
2018-Aug-07 13:29N 37°44' W 122°20'0 0.1
2018-Aug-07 12:59N 37°44' W 122°20'0 0.0
2018-Aug-07 12:29N 37°44' W 122°20'0 0.0
2018-Aug-07 11:58N 37°44' W 122°20'0 0.1
2018-Aug-07 11:28N 37°44' W 122°20'0 0.2
2018-Aug-07 10:58N 37°44' W 122°20'0 0.1
2018-Aug-07 10:28N 37°44' W 122°20'0 0.1
2018-Aug-07 09:58N 37°44' W 122°20'0 0.1
2018-Aug-07 09:28N 37°44' W 122°20'0 0.0
2018-Aug-07 08:58N 37°44' W 122°20'0 0.0
2018-Aug-07 08:28N 37°44' W 122°20'0 0.0
2018-Aug-07 07:58N 37°44' W 122°20'0 0.0
2018-Aug-07 07:28N 37°44' W 122°20'0 0.0
2018-Aug-07 06:58N 37°44' W 122°20'0 0.0
2018-Aug-07 06:28N 37°44' W 122°20'0 0.0
2018-Aug-07 05:58N 37°44' W 122°20'0 0.1
2018-Aug-07 05:28N 37°44' W 122°20'0 0.0
2018-Aug-07 04:58N 37°45' W 122°20'0 0.1
2018-Aug-07 04:30N 37°44' W 122°20'3 6.7
2018-Aug-07 04:00N 37°47' W 122°22'510.7
2018-Aug-07 03:31N 37°52' W 122°25'2 4.8
2018-Aug-07 03:00N 37°55' W 122°25'2 4.4
2018-Aug-07 02:30N 37°55' W 122°22'0 0.4
2018-Aug-07 01:54N 37°55' W 122°22'0 0.0
2018-Aug-07 01:30N 37°55' W 122°22'0 0.0
2018-Aug-07 01:00N 37°55' W 122°22'0 0.0
2018-Aug-07 00:24N 37°55' W 122°22'0 0.0
2018-Aug-07 00:00N 37°55' W 122°22'0 0.0
2018-Aug-06 23:30N 37°55' W 122°22'0 0.0
2018-Aug-06 22:59N 37°55' W 122°22'0 0.0
2018-Aug-06 22:26N 37°55' W 122°22'0 0.0
2018-Aug-06 21:59N 37°55' W 122°22'0 0.0
2018-Aug-06 21:29N 37°55' W 122°22'0 0.0
2018-Aug-06 20:59N 37°55' W 122°22'0 0.0
2018-Aug-06 20:29N 37°55' W 122°22'0 0.0
2018-Aug-06 19:59N 37°55' W 122°22'0 0.0
2018-Aug-06 19:29N 37°55' W 122°22'0 0.0
2018-Aug-06 18:59N 37°55' W 122°22'0 0.0
2018-Aug-06 18:29N 37°55' W 122°22'0 0.0
2018-Aug-06 17:59N 37°55' W 122°22'0 0.1
2018-Aug-06 17:30N 37°55' W 122°22'1 1.3
2018-Aug-06 17:00N 37°54' W 122°22'1 1.6
2018-Aug-06 16:30N 37°54' W 122°23'2 4.4
2018-Aug-06 16:00N 37°55' W 122°25'5 9.7
2018-Aug-06 15:30N 37°50' W 122°24'4 8.5
2018-Aug-06 15:00N 37°46' W 122°22'0 0.6
2018-Aug-06 14:28N 37°46' W 122°22'0 0.1
2018-Aug-06 13:58N 37°46' W 122°22'0 0.0
2018-Aug-06 13:28N 37°46' W 122°22'0 0.0
2018-Aug-06 12:58N 37°46' W 122°22'0 0.0
2018-Aug-06 12:28N 37°46' W 122°22'0 0.1
2018-Aug-06 11:58N 37°46' W 122°22'0 0.2
2018-Aug-06 11:28N 37°46' W 122°21'0 0.3
2018-Aug-06 10:55N 37°46' W 122°21'0 0.2
2018-Aug-06 10:28N 37°46' W 122°22'0 0.1
2018-Aug-06 09:58N 37°46' W 122°22'0 0.0
2018-Aug-06 09:28N 37°46' W 122°22'0 0.0
2018-Aug-06 08:58N 37°46' W 122°22'0 0.1
2018-Aug-06 08:28N 37°46' W 122°22'0 0.1
2018-Aug-06 07:58N 37°46' W 122°22'0 0.0
2018-Aug-06 07:28N 37°46' W 122°22'0 0.0
2018-Aug-06 06:58N 37°46' W 122°22'0 0.0
2018-Aug-06 06:28N 37°46' W 122°22'0 0.0
2018-Aug-06 05:58N 37°46' W 122°22'0 0.1
2018-Aug-06 05:28N 37°46' W 122°22'0 0.1
2018-Aug-06 04:58N 37°46' W 122°22'0 0.0
2018-Aug-06 04:28N 37°46' W 122°22'0 0.1
2018-Aug-06 03:58N 37°46' W 122°22'0 0.6
2018-Aug-06 03:28N 37°46' W 122°22'0 0.3
2018-Aug-06 02:58N 37°46' W 122°22'0 0.0
2018-Aug-06 02:28N 37°46' W 122°22'0 0.1
2018-Aug-06 01:58N 37°46' W 122°22'0 0.0
2018-Aug-06 01:28N 37°46' W 122°22'0 0.1
2018-Aug-06 00:58N 37°46' W 122°22'0 0.1
2018-Aug-06 00:25N 37°46' W 122°21'0 0.1
2018-Aug-05 23:58N 37°46' W 122°22'0 0.0
2018-Aug-05 23:28N 37°46' W 122°22'0 0.1
2018-Aug-05 22:58N 37°46' W 122°22'0 0.1
2018-Aug-05 22:28N 37°46' W 122°22'0 0.2
2018-Aug-05 21:58N 37°46' W 122°21'0 0.0
2018-Aug-05 21:28N 37°46' W 122°21'0 0.3
2018-Aug-05 20:55N 37°46' W 122°21'0 0.5
2018-Aug-05 20:28N 37°46' W 122°22'0 0.1
2018-Aug-05 19:58N 37°46' W 122°22'0 0.0
2018-Aug-05 19:28N 37°46' W 122°22'0 0.0
2018-Aug-05 18:58N 37°46' W 122°22'0 0.0
2018-Aug-05 18:28N 37°46' W 122°22'0 0.0
2018-Aug-05 17:58N 37°46' W 122°22'0 0.1
2018-Aug-05 17:28N 37°46' W 122°22'0 0.1
2018-Aug-05 16:58N 37°46' W 122°22'0 0.3
2018-Aug-05 16:30N 37°46' W 122°21'3 5.0
2018-Aug-05 16:00N 37°48' W 122°23'4 8.5
2018-Aug-05 15:30N 37°49' W 122°28'510.8
2018-Aug-05 15:00N 37°47' W 122°35'9 8.6
2018-Aug-05 14:00N 37°47' W 122°45'4 8.1
2018-Aug-05 13:30N 37°48' W 122°50'4 7.6
2018-Aug-05 13:00N 37°50' W 122°54'4 8.7
2018-Aug-05 12:30N 37°52' W 122°59'4 8.8
2018-Aug-05 12:00N 37°54' W 123°04'4 8.8
2018-Aug-05 11:30N 37°56' W 123°09'5 8.9
2018-Aug-05 10:58N 37°60' W 123°13'4 8.5
2018-Aug-05 10:30N 38°03' W 123°16'5 9.0
2018-Aug-05 10:00N 38°06' W 123°20'5 9.1
2018-Aug-05 09:30N 38°10' W 123°24'510.2
2018-Aug-05 09:00N 38°13' W 123°28'611.2
2018-Aug-05 08:30N 38°17' W 123°33'510.9
2018-Aug-05 08:00N 38°21' W 123°38'510.8
2018-Aug-05 07:30N 38°26' W 123°42'510.5
2018-Aug-05 07:00N 38°29' W 123°47'  
Track history (hours):
 
Tides and Currents Weather Stations Pressure Air Temp Water Temp Dewpoint Dewpoint Depression Visibility Wind Speed Wind Dir Waves Ship Positions

Hon Henry Jackman

Last reported at 2018-Aug-13 03:37 UTC. Time now 2018-Aug-14 07:04 UTC.
Position N 50°48' W 128°29'.

Length 245 m; draft 13.5 m.

Type: Cargo ship. MMSI: 309822000.

Date/timePositionNaut miles runAvg speedWind from/ knotsBaromVisibWave heightAir tempDewpointWater temp
2018-Aug-13 03:37N 50°48' W 128°29'110.6
2018-Aug-13 03:29N 50°49' W 128°28'511.2
2018-Aug-13 03:00N 50°52' W 128°21'611.8
2018-Aug-13 02:30N 50°55' W 128°13'712.1
2018-Aug-13 01:56N 50°60' W 128°05'512.0
2018-Aug-13 01:30N 51°00' W 127°56'611.6
2018-Aug-13 01:00N 50°59' W 127°47'510.5
2018-Aug-13 00:30N 50°56' W 127°41'611.7
2018-Aug-13 00:00N 50°52' W 127°34'612.0
2018-Aug-12 23:30N 50°49' W 127°26'612.1
2018-Aug-12 23:00N 50°44' W 127°20'11 0.4
2018-Aug-11 21:31N 50°37' W 127°08'0 2.8
2018-Aug-11 21:23N 50°37' W 127°08'5 8.2
2018-Aug-11 20:48N 50°40' W 127°14'412.8
2018-Aug-11 20:28N 50°43' W 127°19'613.4
2018-Aug-11 20:00N 50°48' W 127°25'713.9
2018-Aug-11 19:30N 50°52' W 127°34'713.4
2018-Aug-11 19:00N 50°56' W 127°42'610.1
2018-Aug-11 18:25N 50°59' W 127°50'3 8.2
2018-Aug-11 18:00N 51°00' W 127°55'611.1
2018-Aug-11 17:25N 50°59' W 128°05'1311.7
2018-Aug-11 16:15N 50°53' W 128°24'4011.3
2018-Aug-11 12:41N 50°13' W 128°26'26212.7
2018-Aug-10 16:06N 45°57' W 127°02'213.0
2018-Aug-10 15:56N 45°55' W 127°02'2013.1
2018-Aug-10 14:24N 45°35' W 126°55'2013.3
2018-Aug-10 12:55N 45°16' W 126°50'1413.8
2018-Aug-10 11:53N 45°02' W 126°45'2013.5
2018-Aug-10 10:24N 44°42' W 126°39'512.9
2018-Aug-10 10:00N 44°37' W 126°38'6612.9
2018-Aug-10 04:53N 43°33' W 126°18'512.7
2018-Aug-10 04:30N 43°28' W 126°17'812.7
2018-Aug-10 03:53N 43°20' W 126°14'512.8
2018-Aug-10 03:31N 43°15' W 126°13'1312.6
2018-Aug-10 02:29N 43°03' W 126°09'613.0
2018-Aug-10 02:00N 42°57' W 126°07'912.7
2018-Aug-10 01:19N 42°48' W 126°05'515.3
2018-Aug-10 01:01N 42°44' W 126°03'610.7
2018-Aug-10 00:28N 42°38' W 126°02'23112.5
2018-Aug-09 05:57N 39°01' W 124°17'1712.2
2018-Aug-09 04:36N 38°47' W 124°06'112.0
2018-Aug-09 04:29N 38°45' W 124°05'712.2
2018-Aug-09 03:56N 38°40' W 123°59'512.6
2018-Aug-09 03:30N 38°37' W 123°54'612.5
2018-Aug-09 03:00N 38°32' W 123°49'612.4
2018-Aug-09 02:30N 38°28' W 123°43'612.2
2018-Aug-09 02:00N 38°23' W 123°38'612.2
2018-Aug-09 01:30N 38°19' W 123°32'612.5
2018-Aug-09 01:01N 38°15' W 123°27'612.3
2018-Aug-09 00:30N 38°10' W 123°21'5 9.7
2018-Aug-09 00:00N 38°06' W 123°17'4 8.7
2018-Aug-08 23:30N 38°03' W 123°14'4 8.8
2018-Aug-08 23:01N 37°60' W 123°10'4 8.8
2018-Aug-08 22:30N 37°57' W 123°06'4 8.7
2018-Aug-08 22:00N 37°55' W 123°01'5 9.1
2018-Aug-08 21:31N 37°53' W 122°56'4 9.0
2018-Aug-08 21:01N 37°51' W 122°51'4 9.0
2018-Aug-08 20:31N 37°48' W 122°46'5 9.3
2018-Aug-08 20:00N 37°46' W 122°41'5 9.6
2018-Aug-08 19:31N 37°47' W 122°35'713.1
2018-Aug-08 19:01N 37°49' W 122°28'510.6
2018-Aug-08 18:31N 37°46' W 122°22'612.4
2018-Aug-08 18:01N 37°41' W 122°20'611.1
2018-Aug-08 17:30N 37°36' W 122°16'5 9.9
2018-Aug-08 17:00N 37°32' W 122°12'2 0.1
2018-Aug-07 17:21N 37°31' W 122°12'1 2.0
2018-Aug-07 17:00N 37°32' W 122°12'3 6.1
2018-Aug-07 16:30N 37°34' W 122°14'510.5
2018-Aug-07 16:00N 37°38' W 122°18'510.0
2018-Aug-07 15:30N 37°42' W 122°21'2 3.5
2018-Aug-07 14:59N 37°44' W 122°20'0 0.1
2018-Aug-07 14:29N 37°44' W 122°20'0 0.0
2018-Aug-07 13:59N 37°44' W 122°20'0 0.0
2018-Aug-07 13:29N 37°44' W 122°20'0 0.1
2018-Aug-07 12:59N 37°44' W 122°20'0 0.0
2018-Aug-07 12:29N 37°44' W 122°20'0 0.0
2018-Aug-07 11:58N 37°44' W 122°20'0 0.1
2018-Aug-07 11:28N 37°44' W 122°20'0 0.2
2018-Aug-07 10:58N 37°44' W 122°20'0 0.1
2018-Aug-07 10:28N 37°44' W 122°20'0 0.1
2018-Aug-07 09:58N 37°44' W 122°20'0 0.1
2018-Aug-07 09:28N 37°44' W 122°20'0 0.0
2018-Aug-07 08:58N 37°44' W 122°20'0 0.0
2018-Aug-07 08:28N 37°44' W 122°20'0 0.0
2018-Aug-07 07:58N 37°44' W 122°20'0 0.0
2018-Aug-07 07:28N 37°44' W 122°20'0 0.0
2018-Aug-07 06:58N 37°44' W 122°20'0 0.0
2018-Aug-07 06:28N 37°44' W 122°20'0 0.0
2018-Aug-07 05:58N 37°44' W 122°20'0 0.1
2018-Aug-07 05:28N 37°44' W 122°20'0 0.0
2018-Aug-07 04:58N 37°45' W 122°20'0 0.1
2018-Aug-07 04:30N 37°44' W 122°20'3 6.7
2018-Aug-07 04:00N 37°47' W 122°22'510.7
2018-Aug-07 03:31N 37°52' W 122°25'2 4.8
2018-Aug-07 03:00N 37°55' W 122°25'2 4.4
2018-Aug-07 02:30N 37°55' W 122°22'0 0.4
2018-Aug-07 01:54N 37°55' W 122°22'0 0.0
2018-Aug-07 01:30N 37°55' W 122°22'0 0.0
2018-Aug-07 01:00N 37°55' W 122°22'0 0.0
2018-Aug-07 00:24N 37°55' W 122°22'0 0.0
2018-Aug-07 00:00N 37°55' W 122°22'0 0.0
2018-Aug-06 23:30N 37°55' W 122°22'0 0.0
2018-Aug-06 22:59N 37°55' W 122°22'0 0.0
2018-Aug-06 22:26N 37°55' W 122°22'0 0.0
2018-Aug-06 21:59N 37°55' W 122°22'0 0.0
2018-Aug-06 21:29N 37°55' W 122°22'0 0.0
2018-Aug-06 20:59N 37°55' W 122°22'0 0.0
2018-Aug-06 20:29N 37°55' W 122°22'0 0.0
2018-Aug-06 19:59N 37°55' W 122°22'0 0.0
2018-Aug-06 19:29N 37°55' W 122°22'0 0.0
2018-Aug-06 18:59N 37°55' W 122°22'0 0.0
2018-Aug-06 18:29N 37°55' W 122°22'0 0.0
2018-Aug-06 17:59N 37°55' W 122°22'0 0.1
2018-Aug-06 17:30N 37°55' W 122°22'1 1.3
2018-Aug-06 17:00N 37°54' W 122°22'1 1.6
2018-Aug-06 16:30N 37°54' W 122°23'2 4.4
2018-Aug-06 16:00N 37°55' W 122°25'5 9.7
2018-Aug-06 15:30N 37°50' W 122°24'4 8.5
2018-Aug-06 15:00N 37°46' W 122°22'0 0.6
2018-Aug-06 14:28N 37°46' W 122°22'0 0.1
2018-Aug-06 13:58N 37°46' W 122°22'0 0.0
2018-Aug-06 13:28N 37°46' W 122°22'0 0.0
2018-Aug-06 12:58N 37°46' W 122°22'0 0.0
2018-Aug-06 12:28N 37°46' W 122°22'0 0.1
2018-Aug-06 11:58N 37°46' W 122°22'0 0.2
2018-Aug-06 11:28N 37°46' W 122°21'0 0.3
2018-Aug-06 10:55N 37°46' W 122°21'0 0.2
2018-Aug-06 10:28N 37°46' W 122°22'0 0.1
2018-Aug-06 09:58N 37°46' W 122°22'0 0.0
2018-Aug-06 09:28N 37°46' W 122°22'0 0.0
2018-Aug-06 08:58N 37°46' W 122°22'0 0.1
2018-Aug-06 08:28N 37°46' W 122°22'0 0.1
2018-Aug-06 07:58N 37°46' W 122°22'0 0.0
2018-Aug-06 07:28N 37°46' W 122°22'0 0.0
2018-Aug-06 06:58N 37°46' W 122°22'0 0.0
2018-Aug-06 06:28N 37°46' W 122°22'0 0.0
2018-Aug-06 05:58N 37°46' W 122°22'0 0.1
2018-Aug-06 05:28N 37°46' W 122°22'0 0.1
2018-Aug-06 04:58N 37°46' W 122°22'0 0.0
2018-Aug-06 04:28N 37°46' W 122°22'0 0.1
2018-Aug-06 03:58N 37°46' W 122°22'0 0.6
2018-Aug-06 03:28N 37°46' W 122°22'0 0.3
2018-Aug-06 02:58N 37°46' W 122°22'0 0.0
2018-Aug-06 02:28N 37°46' W 122°22'0 0.1
2018-Aug-06 01:58N 37°46' W 122°22'0 0.0
2018-Aug-06 01:28N 37°46' W 122°22'0 0.1
2018-Aug-06 00:58N 37°46' W 122°22'0 0.1
2018-Aug-06 00:25N 37°46' W 122°21'0 0.1
2018-Aug-05 23:58N 37°46' W 122°22'0 0.0
2018-Aug-05 23:28N 37°46' W 122°22'0 0.1
2018-Aug-05 22:58N 37°46' W 122°22'0 0.1
2018-Aug-05 22:28N 37°46' W 122°22'0 0.2
2018-Aug-05 21:58N 37°46' W 122°21'0 0.0
2018-Aug-05 21:28N 37°46' W 122°21'0 0.3
2018-Aug-05 20:55N 37°46' W 122°21'0 0.5
2018-Aug-05 20:28N 37°46' W 122°22'0 0.1
2018-Aug-05 19:58N 37°46' W 122°22'0 0.0
2018-Aug-05 19:28N 37°46' W 122°22'0 0.0
2018-Aug-05 18:58N 37°46' W 122°22'0 0.0
2018-Aug-05 18:28N 37°46' W 122°22'0 0.0
2018-Aug-05 17:58N 37°46' W 122°22'0 0.1
2018-Aug-05 17:28N 37°46' W 122°22'0 0.1
2018-Aug-05 16:58N 37°46' W 122°22'0 0.3
2018-Aug-05 16:30N 37°46' W 122°21'3 5.0
2018-Aug-05 16:00N 37°48' W 122°23'4 8.5
2018-Aug-05 15:30N 37°49' W 122°28'510.8
2018-Aug-05 15:00N 37°47' W 122°35'9 8.6
2018-Aug-05 14:00N 37°47' W 122°45'4 8.1
2018-Aug-05 13:30N 37°48' W 122°50'4 7.6
2018-Aug-05 13:00N 37°50' W 122°54'4 8.7
2018-Aug-05 12:30N 37°52' W 122°59'4 8.8
2018-Aug-05 12:00N 37°54' W 123°04'4 8.8
2018-Aug-05 11:30N 37°56' W 123°09'5 8.9
2018-Aug-05 10:58N 37°60' W 123°13'4 8.5
2018-Aug-05 10:30N 38°03' W 123°16'5 9.0
2018-Aug-05 10:00N 38°06' W 123°20'5 9.1
2018-Aug-05 09:30N 38°10' W 123°24'510.2
2018-Aug-05 09:00N 38°13' W 123°28'611.2
2018-Aug-05 08:30N 38°17' W 123°33'510.9
2018-Aug-05 08:00N 38°21' W 123°38'510.8
2018-Aug-05 07:30N 38°26' W 123°42'510.5
2018-Aug-05 07:00N 38°29' W 123°47'  

Dump ship's entire track history